createdAt,value
2022-12-22T00:00:41.004Z,20.25
2022-12-22T00:03:32.999Z,21.60
2022-12-22T00:06:18.092Z,17.35
2022-12-22T00:09:05.669Z,27.88
2022-12-22T00:11:51.260Z,38.22
2022-12-22T00:14:36.235Z,36.50
2022-12-22T00:17:24.475Z,37.10
2022-12-22T00:20:15.057Z,27.73
2022-12-22T00:23:03.432Z,31.55
2022-12-22T00:25:48.422Z,34.15
2022-12-22T00:28:33.848Z,35.50
2022-12-22T00:31:19.104Z,61.80
2022-12-22T00:34:04.205Z,42.33
2022-12-22T00:36:49.685Z,37.67
2022-12-22T00:39:34.601Z,41.95
2022-12-22T00:42:19.820Z,42.72
2022-12-22T00:45:04.893Z,43.83
2022-12-22T00:47:50.250Z,39.35
2022-12-22T00:50:35.537Z,53.75
2022-12-22T00:53:22.839Z,63.08
2022-12-22T00:56:08.402Z,54.15
2022-12-22T00:58:54.316Z,46.25
2022-12-22T01:01:39.599Z,33.47
2022-12-22T01:04:24.547Z,36.63
2022-12-22T01:07:09.540Z,38.55
2022-12-22T01:09:54.695Z,40.65
2022-12-22T01:12:42.685Z,51.00
2022-12-22T01:15:33.496Z,47.35
2022-12-22T01:18:18.816Z,36.83
2022-12-22T01:21:04.247Z,34.60
2022-12-22T01:23:49.826Z,13.98
2022-12-22T01:26:34.721Z,37.53
2022-12-22T01:29:19.959Z,35.17
2022-12-22T01:32:04.873Z,39.40
2022-12-22T01:34:50.101Z,35.85
2022-12-22T01:37:35.547Z,34.45
2022-12-22T01:40:20.467Z,40.88
2022-12-22T01:43:05.419Z,36.95
2022-12-22T01:45:54.784Z,41.17
2022-12-22T01:48:50.932Z,31.55
2022-12-22T01:51:46.005Z,30.92
2022-12-22T01:54:33.583Z,38.00
2022-12-22T01:57:18.757Z,28.30
2022-12-22T02:00:04.604Z,30.95
2022-12-22T02:02:51.224Z,27.37
2022-12-22T02:08:23.055Z,24.73
2022-12-22T02:11:20.578Z,25.88
2022-12-22T02:14:33.771Z,21.60
2022-12-22T02:17:39.866Z,23.50
2022-12-22T02:20:54.314Z,26.65
2022-12-22T02:23:45.313Z,18.65
2022-12-22T02:26:50.951Z,23.90
2022-12-22T02:29:51.062Z,17.08
2022-12-22T02:32:36.069Z,24.33
2022-12-22T02:35:21.138Z,23.17
2022-12-22T02:38:15.151Z,26.77
2022-12-22T02:41:35.394Z,24.67
2022-12-22T02:44:40.977Z,24.20
2022-12-22T02:47:30.671Z,25.05
2022-12-22T02:50:46.627Z,27.23
2022-12-22T02:53:34.405Z,24.10
2022-12-22T02:56:23.249Z,26.63
2022-12-22T02:59:08.861Z,24.80
2022-12-22T03:01:54.620Z,21.27
2022-12-22T03:04:39.869Z,22.07
2022-12-22T03:07:25.431Z,22.48
2022-12-22T03:10:10.548Z,18.30
2022-12-22T03:12:56.052Z,22.70
2022-12-22T03:15:41.129Z,20.38
2022-12-22T03:18:28.600Z,24.35
2022-12-22T03:21:14.100Z,23.25
2022-12-22T03:23:59.192Z,18.65
2022-12-22T03:26:25.846Z,22.75
2022-12-22T03:28:52.402Z,22.98
2022-12-22T03:31:19.232Z,18.17
2022-12-22T03:33:45.821Z,9.27
2022-12-22T03:36:12.386Z,10.93
2022-12-22T03:38:38.975Z,22.17
2022-12-22T03:41:05.836Z,16.27
2022-12-22T03:43:51.123Z,14.70
2022-12-22T03:46:33.417Z,14.00
2022-12-22T03:49:11.040Z,15.07
2022-12-22T03:51:47.096Z,24.40
2022-12-22T03:54:17.117Z,26.67
2022-12-22T03:56:44.358Z,28.70
2022-12-22T03:59:11.536Z,21.75
2022-12-22T04:01:41.360Z,25.02
2022-12-22T04:04:08.584Z,21.33
2022-12-22T04:06:35.153Z,21.58
2022-12-22T04:09:01.808Z,23.00
2022-12-22T04:11:47.102Z,19.92
2022-12-22T04:14:13.676Z,22.55
2022-12-22T04:16:40.400Z,21.02
2022-12-22T04:19:08.153Z,24.10
2022-12-22T04:21:34.765Z,20.95
2022-12-22T04:24:01.678Z,20.42
2022-12-22T04:26:28.527Z,21.45
2022-12-22T04:28:55.845Z,18.40
2022-12-22T04:31:22.964Z,15.88
2022-12-22T04:33:49.998Z,17.05
2022-12-22T04:36:17.172Z,17.95
2022-12-22T04:38:43.893Z,17.75
2022-12-22T04:41:11.046Z,20.75
2022-12-22T04:43:37.686Z,18.40
2022-12-22T04:46:04.790Z,16.33
2022-12-22T04:48:31.727Z,15.88
2022-12-22T04:51:00.165Z,16.77
2022-12-22T04:53:28.555Z,19.23
2022-12-22T04:55:58.744Z,18.70
2022-12-22T04:58:25.468Z,17.83
2022-12-22T05:00:52.537Z,19.38
2022-12-22T05:03:19.443Z,19.40
2022-12-22T05:05:46.082Z,16.33
2022-12-22T05:08:13.183Z,18.38
2022-12-22T05:10:40.084Z,16.67
2022-12-22T05:13:07.123Z,18.42
2022-12-22T05:15:36.078Z,20.17
2022-12-22T05:18:03.632Z,16.15
2022-12-22T05:20:30.968Z,18.92
2022-12-22T05:22:59.117Z,22.23
2022-12-22T05:25:29.849Z,19.70
2022-12-22T05:27:58.065Z,18.98
2022-12-22T05:30:24.874Z,21.23
2022-12-22T05:32:51.452Z,19.17
2022-12-22T05:35:18.055Z,20.98
2022-12-22T05:37:44.739Z,20.20
2022-12-22T05:40:13.641Z,21.13
2022-12-22T05:42:40.369Z,17.88
2022-12-22T05:45:15.094Z,15.18
2022-12-22T05:47:43.204Z,18.83
2022-12-22T05:50:11.660Z,19.80
2022-12-22T05:52:38.538Z,19.13
2022-12-22T05:55:05.636Z,18.77
2022-12-22T05:57:33.375Z,17.17
2022-12-22T06:00:02.569Z,13.65
2022-12-22T06:02:29.399Z,13.85
2022-12-22T06:04:56.143Z,13.38
2022-12-22T06:07:23.166Z,18.05
2022-12-22T06:09:49.753Z,15.68
2022-12-22T06:12:16.432Z,16.58
2022-12-22T06:14:43.016Z,18.17
2022-12-22T06:17:09.686Z,21.27
2022-12-22T06:19:36.274Z,21.27
2022-12-22T06:22:02.897Z,29.85
2022-12-22T06:24:29.468Z,24.83
2022-12-22T06:26:56.052Z,22.45
2022-12-22T06:29:22.706Z,17.58
2022-12-22T06:31:49.793Z,17.13
2022-12-22T06:34:19.058Z,18.15
2022-12-22T06:36:46.593Z,20.13
2022-12-22T06:39:14.507Z,19.60
2022-12-22T06:42:00.268Z,21.55
2022-12-22T06:44:27.167Z,19.37
2022-12-22T06:46:54.210Z,16.98
2022-12-22T06:49:21.075Z,21.88
2022-12-22T06:51:48.997Z,18.55
2022-12-22T06:54:19.473Z,18.23
2022-12-22T06:56:49.282Z,15.65
2022-12-22T06:59:15.870Z,20.77
2022-12-22T07:01:42.959Z,17.65
2022-12-22T07:04:10.620Z,15.63
2022-12-22T07:06:37.657Z,11.65
2022-12-22T07:09:04.534Z,16.85
2022-12-22T07:11:31.187Z,15.88
2022-12-22T07:13:57.739Z,12.32
2022-12-22T07:16:24.360Z,18.45
2022-12-22T07:18:50.962Z,15.18
2022-12-22T07:21:17.586Z,17.83
2022-12-22T07:23:44.224Z,15.82
2022-12-22T07:26:11.406Z,15.52
2022-12-22T07:28:40.428Z,16.05
2022-12-22T07:31:07.912Z,18.58
2022-12-22T07:33:34.662Z,17.55
2022-12-22T07:36:04.231Z,20.77
2022-12-22T07:38:36.106Z,20.05
2022-12-22T07:41:05.574Z,20.50
2022-12-22T07:43:32.438Z,16.17
2022-12-22T07:45:59.031Z,18.42
2022-12-22T07:48:44.096Z,16.83
2022-12-22T07:51:10.696Z,21.85
2022-12-22T07:53:40.139Z,21.35
2022-12-22T07:56:07.268Z,13.43
2022-12-22T07:58:33.950Z,19.17
2022-12-22T08:01:01.687Z,13.30
2022-12-22T08:03:28.804Z,13.10
2022-12-22T08:05:55.451Z,16.33
2022-12-22T08:08:22.052Z,19.15
2022-12-22T08:10:48.687Z,15.05
2022-12-22T08:13:15.454Z,13.20
2022-12-22T08:15:42.228Z,14.65
2022-12-22T08:18:08.791Z,15.25
2022-12-22T08:20:35.472Z,12.13
2022-12-22T08:23:02.043Z,16.63
2022-12-22T08:25:30.309Z,13.32
2022-12-22T08:27:58.199Z,13.57
2022-12-22T08:30:24.921Z,10.43
2022-12-22T08:32:52.061Z,18.33
2022-12-22T08:35:18.919Z,15.35
2022-12-22T08:37:47.978Z,13.43
2022-12-22T08:40:19.763Z,11.38
2022-12-22T08:42:47.759Z,12.45
2022-12-22T08:45:14.403Z,15.95
2022-12-22T08:47:41.388Z,13.65
2022-12-22T08:50:08.563Z,17.52
2022-12-22T08:52:35.179Z,11.23
2022-12-22T08:55:01.830Z,12.05
2022-12-22T08:57:28.742Z,16.33
2022-12-22T08:59:55.402Z,17.27
2022-12-22T09:02:22.456Z,18.90
2022-12-22T09:04:49.170Z,18.55
2022-12-22T09:07:16.233Z,17.90
2022-12-22T09:09:42.996Z,15.15
2022-12-22T09:12:09.721Z,18.27
2022-12-22T09:14:36.376Z,14.23
2022-12-22T09:17:03.043Z,12.45
2022-12-22T09:19:29.630Z,13.88
2022-12-22T09:21:56.437Z,13.98
2022-12-22T09:24:23.006Z,13.32
2022-12-22T09:26:49.579Z,15.77
2022-12-22T09:29:17.080Z,16.15
2022-12-22T09:31:44.008Z,14.35
2022-12-22T09:34:17.126Z,16.88
2022-12-22T09:36:44.777Z,13.10
2022-12-22T09:39:11.393Z,12.82
2022-12-22T09:41:43.488Z,14.88
2022-12-22T09:44:27.192Z,14.35
2022-12-22T09:46:57.353Z,15.02
2022-12-22T09:49:24.301Z,15.48
2022-12-22T09:52:00.188Z,16.65
2022-12-22T09:54:27.951Z,17.27
2022-12-22T09:56:54.582Z,20.98
2022-12-22T09:59:21.744Z,17.17
2022-12-22T10:02:09.916Z,18.35
2022-12-22T10:04:45.181Z,15.82
2022-12-22T10:07:30.059Z,14.50
2022-12-22T10:09:56.844Z,14.98
2022-12-22T10:12:26.025Z,16.48
2022-12-22T10:14:54.259Z,13.60
2022-12-22T10:17:25.488Z,13.25
2022-12-22T10:19:54.862Z,13.40
2022-12-22T10:22:31.877Z,15.70
2022-12-22T10:25:02.347Z,13.35
2022-12-22T10:27:31.942Z,14.63
2022-12-22T10:30:26.092Z,12.95
2022-12-22T10:33:12.116Z,16.35
2022-12-22T10:35:52.959Z,14.10
2022-12-22T10:38:22.334Z,16.83
2022-12-22T10:40:56.568Z,12.82
2022-12-22T10:43:40.685Z,11.70
2022-12-22T10:46:07.686Z,15.07
2022-12-22T10:48:37.343Z,14.10
2022-12-22T10:51:10.341Z,12.82
2022-12-22T10:53:45.917Z,13.65
2022-12-22T10:56:25.140Z,16.88
2022-12-22T10:59:21.195Z,15.15
2022-12-22T11:01:49.316Z,17.52
2022-12-22T11:04:27.701Z,19.75
2022-12-22T11:06:58.605Z,16.77
2022-12-22T11:09:35.395Z,14.00
2022-12-22T11:12:14.400Z,13.52
2022-12-22T11:15:16.057Z,19.92
2022-12-22T11:17:48.048Z,14.98
2022-12-22T11:20:24.649Z,22.48
2022-12-22T11:23:13.766Z,15.30
2022-12-22T11:25:46.576Z,30.83
2022-12-22T11:28:33.742Z,22.05
2022-12-22T11:31:34.710Z,20.35
2022-12-22T11:34:30.462Z,19.35
2022-12-22T11:37:06.636Z,13.57
2022-12-22T11:42:05.526Z,10.48
2022-12-22T11:44:38.611Z,11.90
2022-12-22T11:47:14.619Z,13.00
2022-12-22T11:51:01.542Z,16.33
2022-12-22T11:53:01.989Z,13.63
2022-12-22T11:58:23.355Z,13.73
2022-12-22T12:01:16.340Z,10.68
2022-12-22T12:04:05.518Z,14.15
2022-12-22T12:06:50.930Z,11.73
2022-12-22T12:09:48.885Z,15.65
2022-12-22T12:13:06.217Z,17.35
2022-12-22T12:15:51.334Z,14.60
2022-12-22T12:18:27.864Z,14.35
2022-12-22T12:21:27.149Z,12.68
2022-12-22T12:24:03.966Z,13.82
2022-12-22T12:27:05.896Z,13.95
2022-12-22T12:29:41.027Z,14.10
2022-12-22T12:32:23.882Z,13.38
2022-12-22T12:35:00.439Z,14.93
2022-12-22T12:37:36.879Z,15.30
2022-12-22T12:40:27.818Z,8.68
2022-12-22T12:42:57.296Z,13.38
2022-12-22T12:45:36.816Z,11.07
2022-12-22T12:48:24.670Z,9.73
2022-12-22T12:50:55.365Z,9.70
2022-12-22T12:53:23.963Z,10.60
2022-12-22T12:55:50.512Z,8.45
2022-12-22T12:58:35.203Z,10.75
2022-12-22T13:01:03.853Z,9.40
2022-12-22T13:04:01.749Z,9.13
2022-12-22T13:09:39.894Z,9.20
2022-12-22T13:12:11.661Z,9.70
2022-12-22T13:14:57.199Z,11.85
2022-12-22T14:58:38.717Z,10.25
2022-12-22T15:01:28.579Z,8.77
2022-12-22T15:04:04.469Z,9.25
2022-12-22T15:06:40.845Z,7.28
2022-12-22T15:09:13.109Z,8.07
2022-12-22T15:11:44.394Z,8.82
2022-12-22T15:14:17.541Z,8.10
2022-12-22T15:16:45.494Z,8.27
2022-12-22T15:19:17.289Z,10.02
2022-12-22T15:21:44.155Z,6.93
2022-12-22T15:24:18.311Z,8.20
2022-12-22T15:26:49.610Z,10.23
2022-12-22T15:29:16.139Z,8.43
2022-12-22T15:31:43.556Z,9.82
2022-12-22T15:34:25.233Z,8.85
2022-12-22T15:36:52.554Z,8.93
2022-12-22T15:39:20.672Z,10.27
2022-12-22T15:41:48.672Z,12.13
2022-12-22T15:44:15.645Z,13.32
2022-12-22T15:46:49.039Z,10.38
2022-12-22T15:49:20.415Z,9.20
2022-12-22T15:51:53.742Z,12.13
2022-12-22T15:54:21.115Z,9.65
2022-12-22T15:56:52.323Z,13.55
2022-12-22T15:59:27.520Z,11.68
2022-12-22T16:02:00.540Z,11.47
2022-12-22T16:04:28.633Z,13.02
2022-12-22T16:06:55.474Z,11.25
2022-12-22T16:09:25.364Z,11.63
2022-12-22T16:11:52.116Z,12.75
2022-12-22T16:14:21.084Z,15.60
2022-12-22T16:16:48.489Z,11.35
2022-12-22T16:19:17.417Z,13.27
2022-12-22T16:21:47.538Z,12.70
2022-12-22T16:24:31.606Z,14.02
2022-12-22T16:26:58.628Z,13.48
2022-12-22T16:29:26.338Z,14.07
2022-12-22T16:31:53.767Z,12.55
2022-12-22T16:34:20.561Z,12.75
2022-12-22T16:36:47.072Z,15.18
2022-12-22T16:39:14.720Z,14.38
2022-12-22T16:41:43.853Z,14.38
2022-12-22T16:44:20.025Z,14.50
2022-12-22T16:51:52.711Z,13.82
2022-12-22T16:54:19.287Z,11.38
2022-12-22T16:56:47.146Z,14.85
2022-12-22T16:59:14.089Z,13.73
2022-12-22T17:01:55.280Z,13.85
2022-12-22T17:04:28.449Z,11.48
2022-12-22T17:06:56.513Z,15.77
2022-12-22T17:09:31.516Z,11.27
2022-12-22T17:12:00.682Z,11.52
2022-12-22T17:14:31.975Z,12.98
2022-12-22T17:16:58.824Z,13.32
2022-12-22T17:19:25.410Z,13.48
2022-12-22T17:21:53.510Z,11.50
2022-12-22T17:24:27.764Z,12.82
2022-12-22T17:26:56.684Z,14.50
2022-12-22T17:29:25.606Z,12.32
2022-12-22T17:31:56.659Z,11.60
2022-12-22T17:34:23.575Z,11.65
2022-12-22T17:36:50.606Z,12.18
2022-12-22T17:39:21.326Z,11.10
2022-12-22T17:41:54.298Z,12.43
2022-12-22T17:44:25.080Z,10.20
2022-12-22T17:46:52.128Z,10.55
2022-12-22T17:49:20.223Z,13.45
2022-12-22T17:51:47.183Z,13.50
2022-12-22T17:54:31.857Z,16.35
2022-12-22T17:57:02.129Z,11.00
2022-12-22T17:59:30.561Z,10.27
2022-12-22T18:01:57.273Z,13.40
2022-12-22T18:04:24.020Z,12.32
2022-12-22T18:06:50.591Z,13.00
2022-12-22T18:09:23.238Z,17.33
2022-12-22T18:11:50.704Z,18.83
2022-12-22T18:14:18.624Z,16.48
2022-12-22T18:16:45.316Z,16.23
2022-12-22T18:19:12.059Z,15.82
2022-12-22T18:21:38.719Z,16.45
2022-12-22T18:24:05.774Z,16.45
2022-12-22T18:26:32.652Z,19.42
2022-12-22T18:28:59.896Z,19.42
2022-12-22T18:31:26.721Z,16.88
2022-12-22T18:33:53.630Z,14.48
2022-12-22T18:36:30.732Z,13.90
2022-12-22T18:38:59.352Z,13.50
2022-12-22T18:41:26.819Z,13.27
2022-12-22T18:43:53.595Z,14.98
2022-12-22T18:46:20.858Z,13.10
2022-12-22T18:48:48.621Z,11.57
2022-12-22T18:51:29.734Z,11.70
2022-12-22T18:53:57.243Z,11.50
2022-12-22T18:56:23.952Z,11.38
2022-12-22T18:58:50.764Z,11.15
2022-12-22T19:01:26.106Z,12.43
2022-12-22T19:03:57.403Z,12.60
2022-12-22T19:06:24.440Z,12.35
2022-12-22T19:08:52.993Z,11.65
2022-12-22T19:11:26.915Z,12.50
2022-12-22T19:13:53.481Z,13.27
2022-12-22T19:16:25.910Z,14.50
2022-12-22T19:18:52.748Z,14.07
2022-12-22T19:21:19.981Z,14.00
2022-12-22T19:23:46.857Z,13.55
2022-12-22T19:26:31.488Z,15.27
2022-12-22T19:29:01.444Z,12.32
2022-12-22T19:31:33.493Z,11.95
2022-12-22T19:34:04.298Z,12.52
2022-12-22T19:36:31.874Z,10.10
2022-12-22T19:39:04.687Z,12.70
2022-12-22T19:41:39.949Z,10.88
2022-12-22T19:44:17.039Z,12.40
2022-12-22T19:46:43.620Z,10.65
2022-12-22T19:49:36.387Z,11.02
2022-12-22T19:52:02.890Z,12.20
2022-12-22T19:54:29.678Z,10.88
2022-12-22T19:56:56.872Z,11.32
2022-12-22T19:59:39.146Z,10.48
2022-12-22T20:02:23.461Z,11.50
2022-12-22T20:04:51.190Z,10.00
2022-12-22T20:07:20.136Z,9.45
2022-12-22T20:09:47.385Z,11.65
2022-12-22T20:12:36.277Z,9.48
2022-12-22T20:15:13.475Z,10.75
2022-12-22T20:17:40.039Z,11.95
2022-12-22T20:20:07.309Z,9.93
2022-12-22T20:22:34.362Z,9.73
2022-12-22T20:25:01.319Z,11.85
2022-12-22T20:27:33.955Z,13.43
2022-12-22T20:30:01.045Z,12.45
2022-12-22T20:32:29.567Z,13.23
2022-12-22T20:34:56.371Z,12.70
2022-12-22T20:37:24.415Z,13.68
2022-12-22T20:39:50.966Z,14.93
2022-12-22T20:42:19.698Z,21.13
2022-12-22T20:45:03.987Z,13.20
2022-12-22T20:47:33.778Z,18.10
2022-12-22T20:50:00.691Z,16.67
2022-12-22T20:52:27.263Z,16.52
2022-12-22T20:54:53.785Z,17.35
2022-12-22T20:57:21.744Z,16.52
2022-12-22T20:59:53.973Z,16.20
2022-12-22T21:02:27.330Z,12.93
2022-12-22T21:04:54.123Z,14.05
2022-12-22T21:07:20.627Z,16.27
2022-12-22T21:09:47.156Z,15.48
2022-12-22T21:12:13.693Z,15.60
2022-12-22T21:14:40.248Z,15.20
2022-12-22T21:17:15.827Z,13.82
2022-12-22T21:19:42.495Z,13.75
2022-12-22T21:22:09.096Z,15.48
2022-12-22T21:24:35.873Z,12.68
2022-12-22T21:27:02.605Z,12.75
2022-12-22T21:29:29.845Z,14.02
2022-12-22T21:31:56.410Z,12.77
2022-12-22T21:34:22.967Z,15.00
2022-12-22T21:36:57.955Z,13.70
2022-12-22T21:39:39.475Z,12.93
2022-12-22T21:42:06.560Z,13.35
2022-12-22T21:44:35.091Z,13.68
2022-12-22T21:47:02.352Z,12.05
2022-12-22T21:49:31.960Z,13.65
2022-12-22T21:51:58.920Z,11.32
2022-12-22T21:54:26.388Z,9.52
2022-12-22T21:56:53.965Z,11.95
2022-12-22T21:59:21.714Z,9.90
2022-12-22T22:01:48.736Z,11.02
2022-12-22T22:04:15.569Z,11.27
2022-12-22T22:06:42.124Z,13.35
2022-12-22T22:09:08.664Z,12.90
2022-12-22T22:11:55.123Z,13.13
2022-12-22T22:14:22.032Z,12.75
2022-12-22T22:16:48.607Z,11.90
2022-12-22T22:19:15.172Z,12.95
2022-12-22T22:21:41.646Z,12.15
2022-12-22T22:24:08.194Z,17.52
2022-12-22T22:26:34.711Z,16.90
2022-12-22T22:29:01.234Z,14.40
2022-12-22T22:31:27.825Z,17.30
2022-12-22T22:33:54.592Z,18.30
2022-12-22T22:36:21.126Z,17.10
2022-12-22T22:38:51.046Z,14.45
2022-12-22T22:41:17.578Z,15.25
2022-12-22T22:43:44.082Z,15.15
2022-12-22T22:46:10.638Z,14.80
2022-12-22T22:48:37.375Z,16.35
2022-12-22T22:51:04.074Z,16.08
2022-12-22T22:53:30.929Z,14.48
2022-12-22T22:56:02.911Z,17.83
2022-12-22T22:58:29.773Z,19.27
2022-12-22T23:00:56.448Z,15.98
2022-12-22T23:03:23.272Z,16.40
2022-12-22T23:05:49.949Z,20.10
2022-12-22T23:08:16.497Z,18.83
2022-12-22T23:10:49.445Z,14.77
2022-12-22T23:13:16.030Z,15.23
2022-12-22T23:15:42.717Z,16.05
2022-12-22T23:18:09.314Z,13.35
2022-12-22T23:20:35.803Z,15.65
2022-12-22T23:23:03.528Z,17.65
2022-12-22T23:25:30.040Z,14.43
2022-12-22T23:27:56.597Z,13.07
2022-12-22T23:30:23.166Z,14.45
2022-12-22T23:32:49.903Z,14.32
2022-12-22T23:35:16.539Z,16.75
2022-12-22T23:37:43.025Z,13.95
2022-12-22T23:40:33.155Z,16.00
2022-12-22T23:42:57.296Z,14.80
2022-12-22T23:45:23.982Z,15.70
2022-12-22T23:47:50.514Z,18.48
2022-12-22T23:50:17.128Z,17.30
2022-12-22T23:52:49.039Z,19.85
2022-12-22T23:55:16.019Z,18.35
2022-12-22T23:57:42.607Z,17.80
